Fraserborg — PCJS — position and weather

sailwx.info

Track history (hours):
 
Tides and Currents Weather Stations Pressure Air Temp Water Temp Dewpoint Dewpoint Depression Visibility Wind Speed Wind Dir Waves Ship Positions

Fraserborg

Last reported at 2017-Dec-12 04:15 UTC. Time now 2017-Dec-15 04:23 UTC.
Position N 60°29' E 019°04'.

Length 157 m; draft 8.4 m.

Type: Ship. MMSI: 245639000.

Date/timePositionNaut miles runAvg speedWind from/ knotsBaromVisibWave heightAir tempDewpointWater temp
2017-Dec-12 04:15N 60°29' E 019°04'310.8
2017-Dec-12 04:00N 60°26' E 019°03'510.8
2017-Dec-12 03:30N 60°21' E 019°01'510.5
2017-Dec-12 03:00N 60°16' E 019°03'510.7
2017-Dec-12 02:30N 60°11' E 019°06'611.3
2017-Dec-12 02:00N 60°06' E 019°14'611.5
2017-Dec-12 01:30N 60°02' E 019°21'611.4
2017-Dec-12 01:00N 59°57' E 019°28'611.4
2017-Dec-12 00:31N 59°53' E 019°35'611.3
2017-Dec-12 00:01N 59°49' E 019°42'611.2
2017-Dec-11 23:29N 59°44' E 019°50'24210.4
2017-Dec-11 00:09N 56°03' E 016°44'110.2
2017-Dec-11 00:00N 56°03' E 016°42'510.1
2017-Dec-10 23:31N 56°00' E 016°34'510.1
2017-Dec-10 23:00N 55°58' E 016°26'510.1
2017-Dec-10 22:31N 55°55' E 016°18'510.2
2017-Dec-10 22:00N 55°53' E 016°11'5 9.9
2017-Dec-10 21:31N 55°50' E 016°03'510.0
2017-Dec-10 21:00N 55°48' E 015°55'510.0
2017-Dec-10 20:30N 55°45' E 015°47'510.0
2017-Dec-10 20:01N 55°43' E 015°40'5 9.9
2017-Dec-10 19:30N 55°40' E 015°33'5 9.8
2017-Dec-10 19:01N 55°38' E 015°25'510.0
2017-Dec-10 18:31N 55°35' E 015°17'1110.2
2017-Dec-10 17:27N 55°30' E 015°00'710.4
2017-Dec-10 16:46N 55°27' E 014°49'610.3
2017-Dec-10 16:11N 55°24' E 014°40'210.1
2017-Dec-10 15:59N 55°22' E 014°38'510.1
2017-Dec-10 15:30N 55°18' E 014°32'1710.4
2017-Dec-10 13:49N 55°05' E 014°13'510.6
2017-Dec-10 13:22N 55°01' E 014°08'1510.6
2017-Dec-10 11:58N 54°55' E 013°44'3910.7
2017-Dec-10 08:18N 54°39' E 012°42'911.2
2017-Dec-10 07:31N 54°35' E 012°28'011.4
2017-Dec-10 07:30N 54°35' E 012°28'510.9
2017-Dec-10 07:00N 54°32' E 012°20'510.5
2017-Dec-10 06:30N 54°28' E 012°14'13 9.9
2017-Dec-10 05:10N 54°25' E 011°52'211.2
2017-Dec-10 04:59N 54°25' E 011°49'510.7
2017-Dec-10 04:30N 54°27' E 011°40'510.6
2017-Dec-10 04:00N 54°29' E 011°32'611.9
2017-Dec-10 03:30N 54°32' E 011°23'612.0
2017-Dec-10 03:01N 54°34' E 011°14'611.4
2017-Dec-10 02:30N 54°37' E 011°05'510.7
2017-Dec-10 02:00N 54°40' E 010°57'5 9.4
2017-Dec-10 01:30N 54°44' E 010°52'510.8
2017-Dec-10 01:00N 54°49' E 010°52'611.0
2017-Dec-10 00:30N 54°55' E 010°54'611.1
2017-Dec-10 00:00N 54°59' E 010°60'510.5
2017-Dec-09 23:30N 55°04' E 011°02'611.3
2017-Dec-09 23:00N 55°10' E 011°03'112 9.4
2017-Dec-09 11:02N 56°60' E 011°42'211.0
2017-Dec-09 10:51N 57°02' E 011°41'411.1
2017-Dec-09 10:30N 57°05' E 011°39'511.1
2017-Dec-09 10:01N 57°10' E 011°35'510.7
2017-Dec-09 09:30N 57°15' E 011°32'510.7
2017-Dec-09 09:00N 57°20' E 011°29'611.2
2017-Dec-09 08:30N 57°26' E 011°26'510.8
2017-Dec-09 08:00N 57°30' E 011°20'510.9
2017-Dec-09 07:31N 57°34' E 011°12'611.1
2017-Dec-09 07:00N 57°38' E 011°05'611.3
2017-Dec-09 06:30N 57°41' E 010°57'611.8
2017-Dec-09 06:00N 57°45' E 010°49'612.2
2017-Dec-09 05:31N 57°48' E 010°38'612.2
2017-Dec-09 05:00N 57°48' E 010°27'8611.5
2017-Dec-08 21:31N 57°42' E 007°45'010.6
2017-Dec-08 21:30N 57°42' E 007°44'510.3
2017-Dec-08 21:00N 57°42' E 007°35'5 9.7
2017-Dec-08 20:30N 57°43' E 007°26'5 9.3
2017-Dec-08 20:00N 57°43' E 007°17'5 9.3
2017-Dec-08 19:30N 57°43' E 007°08'5 9.3
2017-Dec-08 19:00N 57°43' E 006°60'5 9.2
2017-Dec-08 18:31N 57°43' E 006°51'5 9.2
2017-Dec-08 18:00N 57°43' E 006°43'5 9.5
2017-Dec-08 17:31N 57°43' E 006°34'510.3
2017-Dec-08 16:59N 57°47' E 006°26'5 9.7
2017-Dec-08 16:30N 57°50' E 006°20'5 9.6
2017-Dec-08 15:59N 57°53' E 006°13'5 9.8
2017-Dec-08 15:30N 57°56' E 006°06'510.1
2017-Dec-08 15:00N 57°59' E 005°58'5 9.8
2017-Dec-08 14:30N 58°03' E 005°52'14 9.5
2017-Dec-08 13:02N 58°12' E 005°32'0 9.0
2017-Dec-08 13:00N 58°12' E 005°31'5 9.0
2017-Dec-08 12:28N 58°15' E 005°24'13 8.8
2017-Dec-08 11:00N 58°25' E 005°10'5 9.4
2017-Dec-08 10:30N 58°30' E 005°07'5 9.3
2017-Dec-08 10:00N 58°34' E 005°05'5 9.1
2017-Dec-08 09:30N 58°39' E 005°05'5 9.2
2017-Dec-08 09:00N 58°44' E 005°05'4 8.5
2017-Dec-08 08:30N 58°48' E 005°05'4 8.0
2017-Dec-08 08:00N 58°52' E 005°05'4 7.7
2017-Dec-08 07:30N 58°56' E 005°06'4 7.7
2017-Dec-08 07:00N 58°60' E 005°06'4 7.3
2017-Dec-08 06:31N 59°02' E 005°11'4 7.4
2017-Dec-08 06:00N 59°05' E 005°16'4 7.1
2017-Dec-08 05:30N 59°08' E 005°20'510.3
2017-Dec-08 05:00N 59°13' E 005°20'4 9.0
2017-Dec-08 04:30N 59°17' E 005°20'510.3
2017-Dec-08 04:00N 59°22' E 005°18'510.5
2017-Dec-08 03:30N 59°27' E 005°13'510.3
2017-Dec-08 03:00N 59°32' E 005°12'5 9.9
2017-Dec-08 02:30N 59°37' E 005°16'510.4
2017-Dec-08 02:00N 59°41' E 005°23'510.2
2017-Dec-08 01:30N 59°44' E 005°29'510.5
2017-Dec-08 01:00N 59°49' E 005°33'611.8
2017-Dec-08 00:30N 59°55' E 005°30'611.9
2017-Dec-08 00:00N 59°59' E 005°21'510.5
2017-Dec-07 23:30N 60°04' E 005°19'612.2
2017-Dec-07 23:00N 60°10' E 005°15'510.4
2017-Dec-07 22:30N 60°14' E 005°09'5 9.5
2017-Dec-07 22:00N 60°19' E 005°12'5 9.9
2017-Dec-07 21:30N 60°24' E 005°09'611.2
2017-Dec-07 20:59N 60°28' E 005°00'611.3
2017-Dec-07 20:30N 60°33' E 004°56'611.2
2017-Dec-07 20:00N 60°38' E 004°52'611.8
2017-Dec-07 19:30N 60°44' E 004°48'510.2
2017-Dec-07 19:00N 60°48' E 004°43'5 9.5
2017-Dec-07 18:30N 60°53' E 004°41'4 7.3
2017-Dec-07 18:00N 60°56' E 004°41'3 5.8
2017-Dec-07 17:30N 60°59' E 004°45'5 9.8
2017-Dec-07 17:00N 61°02' E 004°53'510.6
2017-Dec-07 16:29N 61°05' E 005°01'510.2
2017-Dec-07 16:00N 61°11' E 005°01'5 9.6
2017-Dec-07 15:30N 61°14' E 004°55'510.2
2017-Dec-07 15:00N 61°18' E 004°48'5 9.9
2017-Dec-07 14:30N 61°23' E 004°50'510.0
2017-Dec-07 14:00N 61°27' E 004°56'510.3
2017-Dec-07 13:30N 61°32' E 005°00'5 9.3
2017-Dec-07 13:00N 61°36' E 004°58'510.5
2017-Dec-07 12:30N 61°42' E 004°56'5 9.5
2017-Dec-07 12:00N 61°46' E 005°00'511.0
2017-Dec-07 11:30N 61°49' E 005°10'4 7.2
2017-Dec-07 11:00N 61°52' E 005°14'4 9.0
2017-Dec-07 10:30N 61°55' E 005°07'4 8.1
2017-Dec-07 10:00N 61°59' E 005°09'510.6
2017-Dec-07 09:30N 62°04' E 005°06'4 8.1
2017-Dec-07 09:00N 62°07' E 004°60'4 9.0
2017-Dec-07 08:30N 62°12' E 005°02'5 9.5
2017-Dec-07 08:00N 62°14' E 005°11'611.6
2017-Dec-07 07:30N 62°10' E 005°21'4 8.5
2017-Dec-07 07:00N 62°12' E 005°29'611.1
2017-Dec-07 06:29N 62°11' E 005°41'611.9
2017-Dec-07 06:00N 62°13' E 005°53'510.8
2017-Dec-07 05:30N 62°17' E 006°00'510.5
2017-Dec-07 05:00N 62°22' E 006°07'510.4
2017-Dec-07 04:30N 62°26' E 006°02'510.0
2017-Dec-07 04:00N 62°30' E 006°09'510.6
2017-Dec-07 03:29N 62°36' E 006°09'3 6.4
2017-Dec-07 03:00N 62°38' E 006°11'510.2
2017-Dec-07 02:30N 62°38' E 006°22'511.0
2017-Dec-07 02:01N 62°43' E 006°29'611.4
2017-Dec-07 01:30N 62°48' E 006°36'611.3
2017-Dec-07 01:00N 62°52' E 006°43'611.3
2017-Dec-07 00:31N 62°57' E 006°49'611.2
2017-Dec-07 00:01N 63°00' E 006°59'611.4
2017-Dec-06 23:30N 63°03' E 007°10'611.6
2017-Dec-06 23:00N 63°04' E 007°23'611.5
2017-Dec-06 22:31N 63°07' E 007°33'510.4
2017-Dec-06 22:00N 63°09' E 007°44'611.6
2017-Dec-06 21:31N 63°13' E 007°54'611.5
2017-Dec-06 21:00N 63°16' E 008°05'  
2017-Dec-04 10:28N 63°31' E 010°29'0 0.0
2017-Dec-04 09:58N 63°31' E 010°29'0 0.0
2017-Dec-04 09:28N 63°31' E 010°29'0 0.0
2017-Dec-04 08:58N 63°31' E 010°29'0 0.1
2017-Dec-04 08:28N 63°31' E 010°29'0 0.0
2017-Dec-04 07:58N 63°31' E 010°29'0 0.0
2017-Dec-04 07:28N 63°31' E 010°29'0 0.1
2017-Dec-04 06:58N 63°31' E 010°29'0 0.0
2017-Dec-04 06:28N 63°31' E 010°29'0 0.0
2017-Dec-04 05:58N 63°31' E 010°29'0 0.0
2017-Dec-04 05:28N 63°31' E 010°29'0 0.1
2017-Dec-04 04:58N 63°31' E 010°29'0 0.0
2017-Dec-04 04:28N 63°31' E 010°29'0 0.0
2017-Dec-04 03:58N 63°31' E 010°29'0 0.1
2017-Dec-04 03:28N 63°31' E 010°29'0 0.0
2017-Dec-04 02:58N 63°31' E 010°29'0 0.1
2017-Dec-04 02:28N 63°31' E 010°29'0 0.0
2017-Dec-04 01:58N 63°31' E 010°29'0 0.0
2017-Dec-04 01:28N 63°31' E 010°29'0 0.0
2017-Dec-04 00:58N 63°31' E 010°29'0 0.0
2017-Dec-04 00:28N 63°31' E 010°29'0 0.0
2017-Dec-03 23:58N 63°31' E 010°29'0 0.0
2017-Dec-03 23:28N 63°31' E 010°29'0 0.0
2017-Dec-03 22:58N 63°31' E 010°29'0 0.0
2017-Dec-03 22:28N 63°31' E 010°29'0 0.0
2017-Dec-03 21:58N 63°31' E 010°29'0 0.1
2017-Dec-03 21:28N 63°31' E 010°29'0 0.0
2017-Dec-03 20:58N 63°31' E 010°29'0 0.0
2017-Dec-03 20:28N 63°31' E 010°29'0 0.1
2017-Dec-03 19:58N 63°31' E 010°29'0 0.1
2017-Dec-03 19:28N 63°31' E 010°29'0 0.0
2017-Dec-03 18:58N 63°31' E 010°29'0 0.0
2017-Dec-03 18:28N 63°31' E 010°29'0 0.0
2017-Dec-03 17:58N 63°31' E 010°29'0 0.1
2017-Dec-03 17:28N 63°31' E 010°29'0 0.0
2017-Dec-03 16:58N 63°31' E 010°29'0 0.0
2017-Dec-03 16:28N 63°31' E 010°29'0 0.0
2017-Dec-03 15:58N 63°31' E 010°29'0 0.1
2017-Dec-03 15:28N 63°31' E 010°29'0 0.2
2017-Dec-03 14:58N 63°31' E 010°29'0 0.0
2017-Dec-03 14:28N 63°31' E 010°29'0 0.1
2017-Dec-03 13:58N 63°31' E 010°29'0 0.1
2017-Dec-03 13:28N 63°31' E 010°29'0 0.0
2017-Dec-03 12:58N 63°31' E 010°29'0 0.0
2017-Dec-03 12:28N 63°31' E 010°29'0 0.1
2017-Dec-03 11:58N 63°31' E 010°29'0 0.0
2017-Dec-03 11:28N 63°31' E 010°29'0 0.1
2017-Dec-03 10:58N 63°31' E 010°29'0 0.0
2017-Dec-03 10:28N 63°31' E 010°29'0 0.0
2017-Dec-03 09:58N 63°31' E 010°29'0 0.0
2017-Dec-03 09:28N 63°31' E 010°29'0 0.1
2017-Dec-03 08:58N 63°31' E 010°29'0 0.1
2017-Dec-03 08:28N 63°31' E 010°29'0 0.1
2017-Dec-03 07:58N 63°31' E 010°29'0 0.1
2017-Dec-03 07:28N 63°31' E 010°29'0 0.0
2017-Dec-03 06:58N 63°31' E 010°29'0 0.0
2017-Dec-03 06:28N 63°31' E 010°29'0 0.0
2017-Dec-03 05:58N 63°31' E 010°29'0 0.0
2017-Dec-03 05:28N 63°31' E 010°29'0 0.0
2017-Dec-03 04:58N 63°31' E 010°29'0 0.0
2017-Dec-03 04:28N 63°31' E 010°29'0 0.1
2017-Dec-03 03:58N 63°31' E 010°29'0 0.0
2017-Dec-03 03:28N 63°31' E 010°29'0 0.1
2017-Dec-03 02:58N 63°31' E 010°29'0 0.1
2017-Dec-03 02:28N 63°31' E 010°29'0 0.1
2017-Dec-03 01:58N 63°31' E 010°29'0 0.0
2017-Dec-03 01:28N 63°31' E 010°29'0 0.1
2017-Dec-03 00:58N 63°31' E 010°29'0 0.1
2017-Dec-03 00:28N 63°31' E 010°29'0 0.1
2017-Dec-02 23:58N 63°31' E 010°29'0 0.1
2017-Dec-02 23:28N 63°31' E 010°29'0 0.1
2017-Dec-02 22:58N 63°31' E 010°29'0 0.0
2017-Dec-02 22:28N 63°31' E 010°29'0 0.6
2017-Dec-02 22:00N 63°31' E 010°29'4 7.9
2017-Dec-02 21:30N 63°29' E 010°20'713.2
2017-Dec-02 21:00N 63°28' E 010°06'611.8
2017-Dec-02 20:30N 63°31' E 009°54'714.1
2017-Dec-02 20:00N 63°38' E 009°47'510.5
2017-Dec-02 19:30N 63°38' E 009°35'713.5
2017-Dec-02 19:00N 63°34' E 009°22'815.2
2017-Dec-02 18:30N 63°30' E 009°07'714.7
2017-Dec-02 18:00N 63°28' E 008°52'714.4
2017-Dec-02 17:30N 63°25' E 008°37'714.3
2017-Dec-02 17:00N 63°22' E 008°23'714.4
2017-Dec-02 16:30N 63°17' E 008°11'713.8
2017-Dec-02 16:01N 63°14' E 007°58'612.2
2017-Dec-02 15:31N 63°13' E 007°44'510.0
2017-Dec-02 15:00N 63°15' E 007°34'612.4
2017-Dec-02 14:30N 63°13' E 007°20'612.4
2017-Dec-02 14:00N 63°12' E 007°07'612.1
2017-Dec-02 13:30N 63°09' E 006°55'611.8
2017-Dec-02 13:00N 63°07' E 006°43'611.8
2017-Dec-02 12:30N 63°04' E 006°31'611.6
2017-Dec-02 12:00N 63°02' E 006°19'612.0
2017-Dec-02 11:29N 62°59' E 006°07'2411.9
2017-Dec-02 09:30N 62°45' E 005°25'  
Track history (hours):
 
Tides and Currents Weather Stations Pressure Air Temp Water Temp Dewpoint Dewpoint Depression Visibility Wind Speed Wind Dir Waves Ship Positions

Fraserborg

Last reported at 2017-Dec-12 04:15 UTC. Time now 2017-Dec-15 04:23 UTC.
Position N 60°29' E 019°04'.

Length 157 m; draft 8.4 m.

Type: Ship. MMSI: 245639000.

Date/timePositionNaut miles runAvg speedWind from/ knotsBaromVisibWave heightAir tempDewpointWater temp
2017-Dec-12 04:15N 60°29' E 019°04'310.8
2017-Dec-12 04:00N 60°26' E 019°03'510.8
2017-Dec-12 03:30N 60°21' E 019°01'510.5
2017-Dec-12 03:00N 60°16' E 019°03'510.7
2017-Dec-12 02:30N 60°11' E 019°06'611.3
2017-Dec-12 02:00N 60°06' E 019°14'611.5
2017-Dec-12 01:30N 60°02' E 019°21'611.4
2017-Dec-12 01:00N 59°57' E 019°28'611.4
2017-Dec-12 00:31N 59°53' E 019°35'611.3
2017-Dec-12 00:01N 59°49' E 019°42'611.2
2017-Dec-11 23:29N 59°44' E 019°50'24210.4
2017-Dec-11 00:09N 56°03' E 016°44'110.2
2017-Dec-11 00:00N 56°03' E 016°42'510.1
2017-Dec-10 23:31N 56°00' E 016°34'510.1
2017-Dec-10 23:00N 55°58' E 016°26'510.1
2017-Dec-10 22:31N 55°55' E 016°18'510.2
2017-Dec-10 22:00N 55°53' E 016°11'5 9.9
2017-Dec-10 21:31N 55°50' E 016°03'510.0
2017-Dec-10 21:00N 55°48' E 015°55'510.0
2017-Dec-10 20:30N 55°45' E 015°47'510.0
2017-Dec-10 20:01N 55°43' E 015°40'5 9.9
2017-Dec-10 19:30N 55°40' E 015°33'5 9.8
2017-Dec-10 19:01N 55°38' E 015°25'510.0
2017-Dec-10 18:31N 55°35' E 015°17'1110.2
2017-Dec-10 17:27N 55°30' E 015°00'710.4
2017-Dec-10 16:46N 55°27' E 014°49'610.3
2017-Dec-10 16:11N 55°24' E 014°40'210.1
2017-Dec-10 15:59N 55°22' E 014°38'510.1
2017-Dec-10 15:30N 55°18' E 014°32'1710.4
2017-Dec-10 13:49N 55°05' E 014°13'510.6
2017-Dec-10 13:22N 55°01' E 014°08'1510.6
2017-Dec-10 11:58N 54°55' E 013°44'3910.7
2017-Dec-10 08:18N 54°39' E 012°42'911.2
2017-Dec-10 07:31N 54°35' E 012°28'011.4
2017-Dec-10 07:30N 54°35' E 012°28'510.9
2017-Dec-10 07:00N 54°32' E 012°20'510.5
2017-Dec-10 06:30N 54°28' E 012°14'13 9.9
2017-Dec-10 05:10N 54°25' E 011°52'211.2
2017-Dec-10 04:59N 54°25' E 011°49'510.7
2017-Dec-10 04:30N 54°27' E 011°40'510.6
2017-Dec-10 04:00N 54°29' E 011°32'611.9
2017-Dec-10 03:30N 54°32' E 011°23'612.0
2017-Dec-10 03:01N 54°34' E 011°14'611.4
2017-Dec-10 02:30N 54°37' E 011°05'510.7
2017-Dec-10 02:00N 54°40' E 010°57'5 9.4
2017-Dec-10 01:30N 54°44' E 010°52'510.8
2017-Dec-10 01:00N 54°49' E 010°52'611.0
2017-Dec-10 00:30N 54°55' E 010°54'611.1
2017-Dec-10 00:00N 54°59' E 010°60'510.5
2017-Dec-09 23:30N 55°04' E 011°02'611.3
2017-Dec-09 23:00N 55°10' E 011°03'112 9.4
2017-Dec-09 11:02N 56°60' E 011°42'211.0
2017-Dec-09 10:51N 57°02' E 011°41'411.1
2017-Dec-09 10:30N 57°05' E 011°39'511.1
2017-Dec-09 10:01N 57°10' E 011°35'510.7
2017-Dec-09 09:30N 57°15' E 011°32'510.7
2017-Dec-09 09:00N 57°20' E 011°29'611.2
2017-Dec-09 08:30N 57°26' E 011°26'510.8
2017-Dec-09 08:00N 57°30' E 011°20'510.9
2017-Dec-09 07:31N 57°34' E 011°12'611.1
2017-Dec-09 07:00N 57°38' E 011°05'611.3
2017-Dec-09 06:30N 57°41' E 010°57'611.8
2017-Dec-09 06:00N 57°45' E 010°49'612.2
2017-Dec-09 05:31N 57°48' E 010°38'612.2
2017-Dec-09 05:00N 57°48' E 010°27'8611.5
2017-Dec-08 21:31N 57°42' E 007°45'010.6
2017-Dec-08 21:30N 57°42' E 007°44'510.3
2017-Dec-08 21:00N 57°42' E 007°35'5 9.7
2017-Dec-08 20:30N 57°43' E 007°26'5 9.3
2017-Dec-08 20:00N 57°43' E 007°17'5 9.3
2017-Dec-08 19:30N 57°43' E 007°08'5 9.3
2017-Dec-08 19:00N 57°43' E 006°60'5 9.2
2017-Dec-08 18:31N 57°43' E 006°51'5 9.2
2017-Dec-08 18:00N 57°43' E 006°43'5 9.5
2017-Dec-08 17:31N 57°43' E 006°34'510.3
2017-Dec-08 16:59N 57°47' E 006°26'5 9.7
2017-Dec-08 16:30N 57°50' E 006°20'5 9.6
2017-Dec-08 15:59N 57°53' E 006°13'5 9.8
2017-Dec-08 15:30N 57°56' E 006°06'510.1
2017-Dec-08 15:00N 57°59' E 005°58'5 9.8
2017-Dec-08 14:30N 58°03' E 005°52'14 9.5
2017-Dec-08 13:02N 58°12' E 005°32'0 9.0
2017-Dec-08 13:00N 58°12' E 005°31'5 9.0
2017-Dec-08 12:28N 58°15' E 005°24'13 8.8
2017-Dec-08 11:00N 58°25' E 005°10'5 9.4
2017-Dec-08 10:30N 58°30' E 005°07'5 9.3
2017-Dec-08 10:00N 58°34' E 005°05'5 9.1
2017-Dec-08 09:30N 58°39' E 005°05'5 9.2
2017-Dec-08 09:00N 58°44' E 005°05'4 8.5
2017-Dec-08 08:30N 58°48' E 005°05'4 8.0
2017-Dec-08 08:00N 58°52' E 005°05'4 7.7
2017-Dec-08 07:30N 58°56' E 005°06'4 7.7
2017-Dec-08 07:00N 58°60' E 005°06'4 7.3
2017-Dec-08 06:31N 59°02' E 005°11'4 7.4
2017-Dec-08 06:00N 59°05' E 005°16'4 7.1
2017-Dec-08 05:30N 59°08' E 005°20'510.3
2017-Dec-08 05:00N 59°13' E 005°20'4 9.0
2017-Dec-08 04:30N 59°17' E 005°20'510.3
2017-Dec-08 04:00N 59°22' E 005°18'510.5
2017-Dec-08 03:30N 59°27' E 005°13'510.3
2017-Dec-08 03:00N 59°32' E 005°12'5 9.9
2017-Dec-08 02:30N 59°37' E 005°16'510.4
2017-Dec-08 02:00N 59°41' E 005°23'510.2
2017-Dec-08 01:30N 59°44' E 005°29'510.5
2017-Dec-08 01:00N 59°49' E 005°33'611.8
2017-Dec-08 00:30N 59°55' E 005°30'611.9
2017-Dec-08 00:00N 59°59' E 005°21'510.5
2017-Dec-07 23:30N 60°04' E 005°19'612.2
2017-Dec-07 23:00N 60°10' E 005°15'510.4
2017-Dec-07 22:30N 60°14' E 005°09'5 9.5
2017-Dec-07 22:00N 60°19' E 005°12'5 9.9
2017-Dec-07 21:30N 60°24' E 005°09'611.2
2017-Dec-07 20:59N 60°28' E 005°00'611.3
2017-Dec-07 20:30N 60°33' E 004°56'611.2
2017-Dec-07 20:00N 60°38' E 004°52'611.8
2017-Dec-07 19:30N 60°44' E 004°48'510.2
2017-Dec-07 19:00N 60°48' E 004°43'5 9.5
2017-Dec-07 18:30N 60°53' E 004°41'4 7.3
2017-Dec-07 18:00N 60°56' E 004°41'3 5.8
2017-Dec-07 17:30N 60°59' E 004°45'5 9.8
2017-Dec-07 17:00N 61°02' E 004°53'510.6
2017-Dec-07 16:29N 61°05' E 005°01'510.2
2017-Dec-07 16:00N 61°11' E 005°01'5 9.6
2017-Dec-07 15:30N 61°14' E 004°55'510.2
2017-Dec-07 15:00N 61°18' E 004°48'5 9.9
2017-Dec-07 14:30N 61°23' E 004°50'510.0
2017-Dec-07 14:00N 61°27' E 004°56'510.3
2017-Dec-07 13:30N 61°32' E 005°00'5 9.3
2017-Dec-07 13:00N 61°36' E 004°58'510.5
2017-Dec-07 12:30N 61°42' E 004°56'5 9.5
2017-Dec-07 12:00N 61°46' E 005°00'511.0
2017-Dec-07 11:30N 61°49' E 005°10'4 7.2
2017-Dec-07 11:00N 61°52' E 005°14'4 9.0
2017-Dec-07 10:30N 61°55' E 005°07'4 8.1
2017-Dec-07 10:00N 61°59' E 005°09'510.6
2017-Dec-07 09:30N 62°04' E 005°06'4 8.1
2017-Dec-07 09:00N 62°07' E 004°60'4 9.0
2017-Dec-07 08:30N 62°12' E 005°02'5 9.5
2017-Dec-07 08:00N 62°14' E 005°11'611.6
2017-Dec-07 07:30N 62°10' E 005°21'4 8.5
2017-Dec-07 07:00N 62°12' E 005°29'611.1
2017-Dec-07 06:29N 62°11' E 005°41'611.9
2017-Dec-07 06:00N 62°13' E 005°53'510.8
2017-Dec-07 05:30N 62°17' E 006°00'510.5
2017-Dec-07 05:00N 62°22' E 006°07'510.4
2017-Dec-07 04:30N 62°26' E 006°02'510.0
2017-Dec-07 04:00N 62°30' E 006°09'510.6
2017-Dec-07 03:29N 62°36' E 006°09'3 6.4
2017-Dec-07 03:00N 62°38' E 006°11'510.2
2017-Dec-07 02:30N 62°38' E 006°22'511.0
2017-Dec-07 02:01N 62°43' E 006°29'611.4
2017-Dec-07 01:30N 62°48' E 006°36'611.3
2017-Dec-07 01:00N 62°52' E 006°43'611.3
2017-Dec-07 00:31N 62°57' E 006°49'611.2
2017-Dec-07 00:01N 63°00' E 006°59'611.4
2017-Dec-06 23:30N 63°03' E 007°10'611.6
2017-Dec-06 23:00N 63°04' E 007°23'611.5
2017-Dec-06 22:31N 63°07' E 007°33'510.4
2017-Dec-06 22:00N 63°09' E 007°44'611.6
2017-Dec-06 21:31N 63°13' E 007°54'611.5
2017-Dec-06 21:00N 63°16' E 008°05'  
2017-Dec-04 10:28N 63°31' E 010°29'0 0.0
2017-Dec-04 09:58N 63°31' E 010°29'0 0.0
2017-Dec-04 09:28N 63°31' E 010°29'0 0.0
2017-Dec-04 08:58N 63°31' E 010°29'0 0.1
2017-Dec-04 08:28N 63°31' E 010°29'0 0.0
2017-Dec-04 07:58N 63°31' E 010°29'0 0.0
2017-Dec-04 07:28N 63°31' E 010°29'0 0.1
2017-Dec-04 06:58N 63°31' E 010°29'0 0.0
2017-Dec-04 06:28N 63°31' E 010°29'0 0.0
2017-Dec-04 05:58N 63°31' E 010°29'0 0.0
2017-Dec-04 05:28N 63°31' E 010°29'0 0.1
2017-Dec-04 04:58N 63°31' E 010°29'0 0.0
2017-Dec-04 04:28N 63°31' E 010°29'0 0.0
2017-Dec-04 03:58N 63°31' E 010°29'0 0.1
2017-Dec-04 03:28N 63°31' E 010°29'0 0.0
2017-Dec-04 02:58N 63°31' E 010°29'0 0.1
2017-Dec-04 02:28N 63°31' E 010°29'0 0.0
2017-Dec-04 01:58N 63°31' E 010°29'0 0.0
2017-Dec-04 01:28N 63°31' E 010°29'0 0.0
2017-Dec-04 00:58N 63°31' E 010°29'0 0.0
2017-Dec-04 00:28N 63°31' E 010°29'0 0.0
2017-Dec-03 23:58N 63°31' E 010°29'0 0.0
2017-Dec-03 23:28N 63°31' E 010°29'0 0.0
2017-Dec-03 22:58N 63°31' E 010°29'0 0.0
2017-Dec-03 22:28N 63°31' E 010°29'0 0.0
2017-Dec-03 21:58N 63°31' E 010°29'0 0.1
2017-Dec-03 21:28N 63°31' E 010°29'0 0.0
2017-Dec-03 20:58N 63°31' E 010°29'0 0.0
2017-Dec-03 20:28N 63°31' E 010°29'0 0.1
2017-Dec-03 19:58N 63°31' E 010°29'0 0.1
2017-Dec-03 19:28N 63°31' E 010°29'0 0.0
2017-Dec-03 18:58N 63°31' E 010°29'0 0.0
2017-Dec-03 18:28N 63°31' E 010°29'0 0.0
2017-Dec-03 17:58N 63°31' E 010°29'0 0.1
2017-Dec-03 17:28N 63°31' E 010°29'0 0.0
2017-Dec-03 16:58N 63°31' E 010°29'0 0.0
2017-Dec-03 16:28N 63°31' E 010°29'0 0.0
2017-Dec-03 15:58N 63°31' E 010°29'0 0.1
2017-Dec-03 15:28N 63°31' E 010°29'0 0.2
2017-Dec-03 14:58N 63°31' E 010°29'0 0.0
2017-Dec-03 14:28N 63°31' E 010°29'0 0.1
2017-Dec-03 13:58N 63°31' E 010°29'0 0.1
2017-Dec-03 13:28N 63°31' E 010°29'0 0.0
2017-Dec-03 12:58N 63°31' E 010°29'0 0.0
2017-Dec-03 12:28N 63°31' E 010°29'0 0.1
2017-Dec-03 11:58N 63°31' E 010°29'0 0.0
2017-Dec-03 11:28N 63°31' E 010°29'0 0.1
2017-Dec-03 10:58N 63°31' E 010°29'0 0.0
2017-Dec-03 10:28N 63°31' E 010°29'0 0.0
2017-Dec-03 09:58N 63°31' E 010°29'0 0.0
2017-Dec-03 09:28N 63°31' E 010°29'0 0.1
2017-Dec-03 08:58N 63°31' E 010°29'0 0.1
2017-Dec-03 08:28N 63°31' E 010°29'0 0.1
2017-Dec-03 07:58N 63°31' E 010°29'0 0.1
2017-Dec-03 07:28N 63°31' E 010°29'0 0.0
2017-Dec-03 06:58N 63°31' E 010°29'0 0.0
2017-Dec-03 06:28N 63°31' E 010°29'0 0.0
2017-Dec-03 05:58N 63°31' E 010°29'0 0.0
2017-Dec-03 05:28N 63°31' E 010°29'0 0.0
2017-Dec-03 04:58N 63°31' E 010°29'0 0.0
2017-Dec-03 04:28N 63°31' E 010°29'0 0.1
2017-Dec-03 03:58N 63°31' E 010°29'0 0.0
2017-Dec-03 03:28N 63°31' E 010°29'0 0.1
2017-Dec-03 02:58N 63°31' E 010°29'0 0.1
2017-Dec-03 02:28N 63°31' E 010°29'0 0.1
2017-Dec-03 01:58N 63°31' E 010°29'0 0.0
2017-Dec-03 01:28N 63°31' E 010°29'0 0.1
2017-Dec-03 00:58N 63°31' E 010°29'0 0.1
2017-Dec-03 00:28N 63°31' E 010°29'0 0.1
2017-Dec-02 23:58N 63°31' E 010°29'0 0.1
2017-Dec-02 23:28N 63°31' E 010°29'0 0.1
2017-Dec-02 22:58N 63°31' E 010°29'0 0.0
2017-Dec-02 22:28N 63°31' E 010°29'0 0.6
2017-Dec-02 22:00N 63°31' E 010°29'4 7.9
2017-Dec-02 21:30N 63°29' E 010°20'713.2
2017-Dec-02 21:00N 63°28' E 010°06'611.8
2017-Dec-02 20:30N 63°31' E 009°54'714.1
2017-Dec-02 20:00N 63°38' E 009°47'510.5
2017-Dec-02 19:30N 63°38' E 009°35'713.5
2017-Dec-02 19:00N 63°34' E 009°22'815.2
2017-Dec-02 18:30N 63°30' E 009°07'714.7
2017-Dec-02 18:00N 63°28' E 008°52'714.4
2017-Dec-02 17:30N 63°25' E 008°37'714.3
2017-Dec-02 17:00N 63°22' E 008°23'714.4
2017-Dec-02 16:30N 63°17' E 008°11'713.8
2017-Dec-02 16:01N 63°14' E 007°58'612.2
2017-Dec-02 15:31N 63°13' E 007°44'510.0
2017-Dec-02 15:00N 63°15' E 007°34'612.4
2017-Dec-02 14:30N 63°13' E 007°20'612.4
2017-Dec-02 14:00N 63°12' E 007°07'612.1
2017-Dec-02 13:30N 63°09' E 006°55'611.8
2017-Dec-02 13:00N 63°07' E 006°43'611.8
2017-Dec-02 12:30N 63°04' E 006°31'611.6
2017-Dec-02 12:00N 63°02' E 006°19'612.0
2017-Dec-02 11:29N 62°59' E 006°07'2411.9
2017-Dec-02 09:30N 62°45' E 005°25'  

Dump ship's entire track history